sensor_id;sensor_type;location;lat;lon;timestamp;P1;durP1;ratioP1;P2;durP2;ratioP2
21894;SDS011;11112;51.270;7.224;2023-04-29T00:00:02;28.10;;;23.95;;
21894;SDS011;11112;51.270;7.224;2023-04-29T00:02:31;27.58;;;23.30;;
21894;SDS011;11112;51.270;7.224;2023-04-29T00:05:01;27.77;;;23.20;;
21894;SDS011;11112;51.270;7.224;2023-04-29T00:07:29;29.15;;;23.80;;
21894;SDS011;11112;51.270;7.224;2023-04-29T00:09:56;29.17;;;21.85;;
21894;SDS011;11112;51.270;7.224;2023-04-29T00:12:24;24.85;;;20.90;;
21894;SDS011;11112;51.270;7.224;2023-04-29T00:14:52;27.08;;;21.05;;
21894;SDS011;11112;51.270;7.224;2023-04-29T00:17:19;26.38;;;21.13;;
21894;SDS011;11112;51.270;7.224;2023-04-29T00:19:48;25.60;;;20.30;;
21894;SDS011;11112;51.270;7.224;2023-04-29T00:22:17;25.35;;;20.10;;
21894;SDS011;11112;51.270;7.224;2023-04-29T00:24:46;25.98;;;19.52;;
21894;SDS011;11112;51.270;7.224;2023-04-29T00:27:15;27.73;;;20.83;;
21894;SDS011;11112;51.270;7.224;2023-04-29T00:29:43;25.55;;;19.15;;
21894;SDS011;11112;51.270;7.224;2023-04-29T00:32:10;26.23;;;20.35;;
21894;SDS011;11112;51.270;7.224;2023-04-29T00:34:40;26.80;;;20.42;;
21894;SDS011;11112;51.270;7.224;2023-04-29T00:37:08;27.45;;;21.15;;
21894;SDS011;11112;51.270;7.224;2023-04-29T00:39:38;27.67;;;21.27;;
21894;SDS011;11112;51.270;7.224;2023-04-29T00:42:05;28.35;;;22.10;;
21894;SDS011;11112;51.270;7.224;2023-04-29T00:44:34;28.67;;;21.02;;
21894;SDS011;11112;51.270;7.224;2023-04-29T00:47:02;28.95;;;22.92;;
21894;SDS011;11112;51.270;7.224;2023-04-29T00:49:29;32.63;;;23.65;;
21894;SDS011;11112;51.270;7.224;2023-04-29T00:51:57;31.65;;;23.83;;
21894;SDS011;11112;51.270;7.224;2023-04-29T00:54:26;32.90;;;25.13;;
21894;SDS011;11112;51.270;7.224;2023-04-29T00:56:55;33.13;;;26.27;;
21894;SDS011;11112;51.270;7.224;2023-04-29T00:59:23;34.90;;;25.83;;
21894;SDS011;11112;51.270;7.224;2023-04-29T01:01:56;32.15;;;24.70;;
21894;SDS011;11112;51.270;7.224;2023-04-29T01:04:25;33.80;;;23.88;;
21894;SDS011;11112;51.270;7.224;2023-04-29T01:06:55;32.10;;;24.00;;
21894;SDS011;11112;51.270;7.224;2023-04-29T01:09:34;34.97;;;24.48;;
21894;SDS011;11112;51.270;7.224;2023-04-29T01:12:20;31.25;;;24.17;;
21894;SDS011;11112;51.270;7.224;2023-04-29T01:15:01;33.55;;;23.50;;
21894;SDS011;11112;51.270;7.224;2023-04-29T01:17:35;32.63;;;24.27;;
21894;SDS011;11112;51.270;7.224;2023-04-29T01:20:08;32.60;;;24.27;;
21894;SDS011;11112;51.270;7.224;2023-04-29T01:22:37;34.03;;;24.73;;
21894;SDS011;11112;51.270;7.224;2023-04-29T01:25:06;34.72;;;25.65;;
21894;SDS011;11112;51.270;7.224;2023-04-29T01:27:41;40.50;;;27.00;;
21894;SDS011;11112;51.270;7.224;2023-04-29T01:30:17;36.38;;;26.15;;
21894;SDS011;11112;51.270;7.224;2023-04-29T01:32:57;38.90;;;27.23;;
21894;SDS011;11112;51.270;7.224;2023-04-29T01:35:39;40.28;;;27.52;;
21894;SDS011;11112;51.270;7.224;2023-04-29T01:38:24;37.83;;;26.60;;
21894;SDS011;11112;51.270;7.224;2023-04-29T01:41:03;42.03;;;28.45;;
21894;SDS011;11112;51.270;7.224;2023-04-29T01:43:42;39.65;;;27.33;;
21894;SDS011;11112;51.270;7.224;2023-04-29T01:46:15;43.10;;;28.55;;
21894;SDS011;11112;51.270;7.224;2023-04-29T01:48:44;42.20;;;28.25;;
21894;SDS011;11112;51.270;7.224;2023-04-29T01:51:13;40.20;;;27.30;;
21894;SDS011;11112;51.270;7.224;2023-04-29T01:53:41;41.08;;;27.88;;
21894;SDS011;11112;51.270;7.224;2023-04-29T01:56:13;41.78;;;26.88;;
21894;SDS011;11112;51.270;7.224;2023-04-29T01:58:41;42.70;;;28.67;;
21894;SDS011;11112;51.270;7.224;2023-04-29T02:01:11;41.63;;;26.95;;
21894;SDS011;11112;51.270;7.224;2023-04-29T02:03:38;42.60;;;28.50;;
21894;SDS011;11112;51.270;7.224;2023-04-29T02:06:08;44.72;;;27.98;;
21894;SDS011;11112;51.270;7.224;2023-04-29T02:08:35;45.20;;;29.17;;
21894;SDS011;11112;51.270;7.224;2023-04-29T02:11:04;46.08;;;29.25;;
21894;SDS011;11112;51.270;7.224;2023-04-29T02:13:33;45.00;;;28.55;;
21894;SDS011;11112;51.270;7.224;2023-04-29T02:16:07;48.13;;;29.85;;
21894;SDS011;11112;51.270;7.224;2023-04-29T02:18:35;44.58;;;28.52;;
21894;SDS011;11112;51.270;7.224;2023-04-29T02:21:03;48.33;;;30.48;;
21894;SDS011;11112;51.270;7.224;2023-04-29T02:23:30;50.83;;;31.45;;
21894;SDS011;11112;51.270;7.224;2023-04-29T02:25:58;51.75;;;31.75;;
21894;SDS011;11112;51.270;7.224;2023-04-29T02:28:26;57.28;;;34.30;;
21894;SDS011;11112;51.270;7.224;2023-04-29T02:30:54;54.28;;;33.10;;
21894;SDS011;11112;51.270;7.224;2023-04-29T02:33:21;58.92;;;35.63;;
21894;SDS011;11112;51.270;7.224;2023-04-29T02:35:49;59.58;;;36.28;;
21894;SDS011;11112;51.270;7.224;2023-04-29T02:38:17;64.50;;;35.88;;
21894;SDS011;11112;51.270;7.224;2023-04-29T02:40:45;57.33;;;34.80;;
21894;SDS011;11112;51.270;7.224;2023-04-29T02:43:13;55.60;;;34.20;;
21894;SDS011;11112;51.270;7.224;2023-04-29T02:45:40;48.67;;;31.35;;
21894;SDS011;11112;51.270;7.224;2023-04-29T02:48:10;44.70;;;28.98;;
21894;SDS011;11112;51.270;7.224;2023-04-29T02:50:37;50.75;;;31.08;;
21894;SDS011;11112;51.270;7.224;2023-04-29T02:53:05;54.63;;;33.17;;
21894;SDS011;11112;51.270;7.224;2023-04-29T02:55:32;55.20;;;33.53;;
21894;SDS011;11112;51.270;7.224;2023-04-29T02:57:59;55.75;;;33.63;;
21894;SDS011;11112;51.270;7.224;2023-04-29T03:00:28;60.05;;;35.72;;
21894;SDS011;11112;51.270;7.224;2023-04-29T03:02:55;61.17;;;35.95;;
21894;SDS011;11112;51.270;7.224;2023-04-29T03:05:24;64.53;;;37.35;;
21894;SDS011;11112;51.270;7.224;2023-04-29T03:07:52;65.10;;;36.58;;
21894;SDS011;11112;51.270;7.224;2023-04-29T03:10:19;58.25;;;34.67;;
21894;SDS011;11112;51.270;7.224;2023-04-29T03:12:47;61.35;;;35.80;;
21894;SDS011;11112;51.270;7.224;2023-04-29T03:15:15;54.92;;;34.03;;
21894;SDS011;11112;51.270;7.224;2023-04-29T03:17:43;58.88;;;35.33;;
21894;SDS011;11112;51.270;7.224;2023-04-29T03:20:11;57.65;;;34.35;;
21894;SDS011;11112;51.270;7.224;2023-04-29T03:22:40;59.63;;;35.70;;
21894;SDS011;11112;51.270;7.224;2023-04-29T03:25:07;56.05;;;34.13;;
21894;SDS011;11112;51.270;7.224;2023-04-29T03:27:35;55.92;;;33.03;;
21894;SDS011;11112;51.270;7.224;2023-04-29T03:30:05;47.00;;;28.90;;
21894;SDS011;11112;51.270;7.224;2023-04-29T03:32:34;47.70;;;28.42;;
21894;SDS011;11112;51.270;7.224;2023-04-29T03:35:01;41.67;;;26.90;;
21894;SDS011;11112;51.270;7.224;2023-04-29T03:37:29;40.30;;;26.52;;
21894;SDS011;11112;51.270;7.224;2023-04-29T03:39:58;37.95;;;24.23;;
21894;SDS011;11112;51.270;7.224;2023-04-29T03:42:26;36.03;;;24.20;;
21894;SDS011;11112;51.270;7.224;2023-04-29T03:44:53;37.58;;;25.08;;
21894;SDS011;11112;51.270;7.224;2023-04-29T03:47:20;35.70;;;23.90;;
21894;SDS011;11112;51.270;7.224;2023-04-29T03:49:48;31.45;;;21.67;;
21894;SDS011;11112;51.270;7.224;2023-04-29T03:52:15;33.22;;;22.13;;
21894;SDS011;11112;51.270;7.224;2023-04-29T03:54:44;32.72;;;21.27;;
21894;SDS011;11112;51.270;7.224;2023-04-29T03:57:13;31.48;;;20.83;;
21894;SDS011;11112;51.270;7.224;2023-04-29T03:59:42;29.35;;;20.10;;
21894;SDS011;11112;51.270;7.224;2023-04-29T04:02:09;30.73;;;20.25;;
21894;SDS011;11112;51.270;7.224;2023-04-29T04:04:37;30.13;;;19.48;;
21894;SDS011;11112;51.270;7.224;2023-04-29T04:07:06;25.00;;;17.08;;
21894;SDS011;11112;51.270;7.224;2023-04-29T04:09:35;27.20;;;17.38;;
21894;SDS011;11112;51.270;7.224;2023-04-29T04:12:02;26.42;;;17.48;;
21894;SDS011;11112;51.270;7.224;2023-04-29T04:14:33;25.25;;;16.95;;
21894;SDS011;11112;51.270;7.224;2023-04-29T04:17:00;24.55;;;16.92;;
21894;SDS011;11112;51.270;7.224;2023-04-29T04:19:28;25.58;;;17.58;;
21894;SDS011;11112;51.270;7.224;2023-04-29T04:21:56;23.98;;;16.40;;
21894;SDS011;11112;51.270;7.224;2023-04-29T04:24:25;25.75;;;17.02;;
21894;SDS011;11112;51.270;7.224;2023-04-29T04:26:54;26.23;;;18.38;;
21894;SDS011;11112;51.270;7.224;2023-04-29T04:29:21;25.35;;;17.85;;
21894;SDS011;11112;51.270;7.224;2023-04-29T04:31:51;25.85;;;18.50;;
21894;SDS011;11112;51.270;7.224;2023-04-29T04:34:20;25.75;;;18.30;;
21894;SDS011;11112;51.270;7.224;2023-04-29T04:36:50;28.15;;;20.15;;
21894;SDS011;11112;51.270;7.224;2023-04-29T04:39:17;26.52;;;18.90;;
21894;SDS011;11112;51.270;7.224;2023-04-29T04:41:45;27.80;;;18.48;;
21894;SDS011;11112;51.270;7.224;2023-04-29T04:44:12;26.63;;;18.40;;
21894;SDS011;11112;51.270;7.224;2023-04-29T04:46:40;26.08;;;17.95;;
21894;SDS011;11112;51.270;7.224;2023-04-29T04:49:09;26.35;;;18.80;;
21894;SDS011;11112;51.270;7.224;2023-04-29T04:51:36;26.45;;;18.75;;
21894;SDS011;11112;51.270;7.224;2023-04-29T04:54:04;25.83;;;17.98;;
21894;SDS011;11112;51.270;7.224;2023-04-29T04:56:32;22.95;;;17.35;;
21894;SDS011;11112;51.270;7.224;2023-04-29T04:59:01;23.65;;;17.27;;
21894;SDS011;11112;51.270;7.224;2023-04-29T05:01:30;24.05;;;17.60;;
21894;SDS011;11112;51.270;7.224;2023-04-29T05:03:59;26.02;;;18.05;;
21894;SDS011;11112;51.270;7.224;2023-04-29T05:06:28;25.13;;;17.05;;
21894;SDS011;11112;51.270;7.224;2023-04-29T05:08:56;23.02;;;16.60;;
21894;SDS011;11112;51.270;7.224;2023-04-29T05:11:23;24.85;;;17.35;;
21894;SDS011;11112;51.270;7.224;2023-04-29T05:13:51;24.13;;;16.70;;
21894;SDS011;11112;51.270;7.224;2023-04-29T05:16:19;24.58;;;16.75;;
21894;SDS011;11112;51.270;7.224;2023-04-29T05:18:46;21.85;;;16.33;;
21894;SDS011;11112;51.270;7.224;2023-04-29T05:21:14;23.15;;;16.00;;
21894;SDS011;11112;51.270;7.224;2023-04-29T05:23:46;21.13;;;16.02;;
21894;SDS011;11112;51.270;7.224;2023-04-29T05:26:15;24.13;;;17.02;;
21894;SDS011;11112;51.270;7.224;2023-04-29T05:28:43;22.10;;;15.82;;
21894;SDS011;11112;51.270;7.224;2023-04-29T05:31:12;22.17;;;15.70;;
21894;SDS011;11112;51.270;7.224;2023-04-29T05:33:40;19.90;;;14.48;;
21894;SDS011;11112;51.270;7.224;2023-04-29T05:36:07;21.98;;;15.70;;
21894;SDS011;11112;51.270;7.224;2023-04-29T05:38:36;21.90;;;15.50;;
21894;SDS011;11112;51.270;7.224;2023-04-29T05:41:05;22.33;;;15.05;;
21894;SDS011;11112;51.270;7.224;2023-04-29T05:43:32;22.25;;;15.50;;
21894;SDS011;11112;51.270;7.224;2023-04-29T05:45:59;23.60;;;16.80;;
21894;SDS011;11112;51.270;7.224;2023-04-29T05:48:27;27.70;;;18.42;;
21894;SDS011;11112;51.270;7.224;2023-04-29T05:50:54;26.83;;;18.50;;
21894;SDS011;11112;51.270;7.224;2023-04-29T05:53:21;26.67;;;18.55;;
21894;SDS011;11112;51.270;7.224;2023-04-29T05:55:49;25.83;;;18.20;;
21894;SDS011;11112;51.270;7.224;2023-04-29T05:58:18;28.83;;;19.15;;
21894;SDS011;11112;51.270;7.224;2023-04-29T06:00:45;26.80;;;19.05;;
21894;SDS011;11112;51.270;7.224;2023-04-29T06:03:13;28.70;;;19.80;;
21894;SDS011;11112;51.270;7.224;2023-04-29T06:05:41;26.98;;;19.67;;
21894;SDS011;11112;51.270;7.224;2023-04-29T06:08:09;28.00;;;19.90;;
21894;SDS011;11112;51.270;7.224;2023-04-29T06:10:37;31.50;;;20.90;;
21894;SDS011;11112;51.270;7.224;2023-04-29T06:13:04;30.30;;;20.40;;
21894;SDS011;11112;51.270;7.224;2023-04-29T06:15:33;26.50;;;19.58;;
21894;SDS011;11112;51.270;7.224;2023-04-29T06:18:01;26.92;;;19.20;;
21894;SDS011;11112;51.270;7.224;2023-04-29T06:20:29;28.08;;;19.83;;
21894;SDS011;11112;51.270;7.224;2023-04-29T06:22:56;27.70;;;19.70;;
21894;SDS011;11112;51.270;7.224;2023-04-29T06:25:24;26.73;;;19.90;;
21894;SDS011;11112;51.270;7.224;2023-04-29T06:27:52;30.10;;;20.17;;
21894;SDS011;11112;51.270;7.224;2023-04-29T06:30:19;28.40;;;20.52;;
21894;SDS011;11112;51.270;7.224;2023-04-29T06:32:48;29.85;;;20.92;;
21894;SDS011;11112;51.270;7.224;2023-04-29T06:35:16;27.40;;;21.20;;
21894;SDS011;11112;51.270;7.224;2023-04-29T06:37:43;28.17;;;20.67;;
21894;SDS011;11112;51.270;7.224;2023-04-29T06:40:11;30.80;;;21.20;;
21894;SDS011;11112;51.270;7.224;2023-04-29T06:42:39;28.40;;;20.38;;
21894;SDS011;11112;51.270;7.224;2023-04-29T06:45:08;26.70;;;19.92;;
21894;SDS011;11112;51.270;7.224;2023-04-29T06:47:36;27.15;;;20.17;;
21894;SDS011;11112;51.270;7.224;2023-04-29T06:50:07;28.35;;;19.63;;
21894;SDS011;11112;51.270;7.224;2023-04-29T06:52:35;24.63;;;19.27;;
21894;SDS011;11112;51.270;7.224;2023-04-29T06:55:03;24.80;;;19.50;;
21894;SDS011;11112;51.270;7.224;2023-04-29T06:57:32;26.55;;;19.73;;
21894;SDS011;11112;51.270;7.224;2023-04-29T07:00:01;23.75;;;19.00;;
21894;SDS011;11112;51.270;7.224;2023-04-29T07:02:29;25.30;;;19.25;;
21894;SDS011;11112;51.270;7.224;2023-04-29T07:05:12;26.95;;;19.63;;
21894;SDS011;11112;51.270;7.224;2023-04-29T07:07:40;25.60;;;19.52;;
21894;SDS011;11112;51.270;7.224;2023-04-29T07:10:09;26.58;;;19.23;;
21894;SDS011;11112;51.270;7.224;2023-04-29T07:12:38;26.23;;;18.65;;
21894;SDS011;11112;51.270;7.224;2023-04-29T07:15:06;24.35;;;19.27;;
21894;SDS011;11112;51.270;7.224;2023-04-29T07:17:36;25.25;;;19.73;;
21894;SDS011;11112;51.270;7.224;2023-04-29T07:20:03;28.08;;;19.42;;
21894;SDS011;11112;51.270;7.224;2023-04-29T07:22:35;26.67;;;19.70;;
21894;SDS011;11112;51.270;7.224;2023-04-29T07:25:03;25.25;;;18.95;;
21894;SDS011;11112;51.270;7.224;2023-04-29T07:27:32;23.00;;;18.02;;
21894;SDS011;11112;51.270;7.224;2023-04-29T07:30:00;24.13;;;18.90;;
21894;SDS011;11112;51.270;7.224;2023-04-29T07:32:28;25.42;;;19.10;;
21894;SDS011;11112;51.270;7.224;2023-04-29T07:34:56;24.85;;;19.25;;
21894;SDS011;11112;51.270;7.224;2023-04-29T07:37:26;27.13;;;20.58;;
21894;SDS011;11112;51.270;7.224;2023-04-29T07:39:56;29.58;;;22.10;;
21894;SDS011;11112;51.270;7.224;2023-04-29T07:42:23;29.08;;;21.48;;
21894;SDS011;11112;51.270;7.224;2023-04-29T07:44:51;27.67;;;20.65;;
21894;SDS011;11112;51.270;7.224;2023-04-29T07:47:20;30.92;;;21.20;;
21894;SDS011;11112;51.270;7.224;2023-04-29T07:49:48;29.05;;;21.17;;
21894;SDS011;11112;51.270;7.224;2023-04-29T07:52:16;31.48;;;21.67;;
21894;SDS011;11112;51.270;7.224;2023-04-29T07:54:44;30.10;;;21.23;;
21894;SDS011;11112;51.270;7.224;2023-04-29T07:57:13;31.45;;;21.38;;
21894;SDS011;11112;51.270;7.224;2023-04-29T07:59:40;28.63;;;20.85;;
21894;SDS011;11112;51.270;7.224;2023-04-29T08:02:07;30.10;;;21.13;;
21894;SDS011;11112;51.270;7.224;2023-04-29T08:04:37;31.90;;;21.70;;
21894;SDS011;11112;51.270;7.224;2023-04-29T08:07:06;27.65;;;21.63;;
21894;SDS011;11112;51.270;7.224;2023-04-29T08:09:34;29.95;;;22.95;;
21894;SDS011;11112;51.270;7.224;2023-04-29T08:12:07;28.73;;;21.88;;
21894;SDS011;11112;51.270;7.224;2023-04-29T08:14:36;27.17;;;20.48;;
21894;SDS011;11112;51.270;7.224;2023-04-29T08:17:05;28.85;;;20.77;;
21894;SDS011;11112;51.270;7.224;2023-04-29T08:19:32;27.48;;;20.25;;
21894;SDS011;11112;51.270;7.224;2023-04-29T08:22:00;29.20;;;20.98;;
21894;SDS011;11112;51.270;7.224;2023-04-29T08:24:28;26.13;;;20.33;;
21894;SDS011;11112;51.270;7.224;2023-04-29T08:26:57;25.55;;;17.98;;
21894;SDS011;11112;51.270;7.224;2023-04-29T08:29:25;24.98;;;18.15;;
21894;SDS011;11112;51.270;7.224;2023-04-29T08:31:54;25.58;;;18.15;;
21894;SDS011;11112;51.270;7.224;2023-04-29T08:34:21;22.45;;;17.63;;
21894;SDS011;11112;51.270;7.224;2023-04-29T08:36:48;21.88;;;17.30;;
21894;SDS011;11112;51.270;7.224;2023-04-29T08:39:15;21.45;;;16.17;;
21894;SDS011;11112;51.270;7.224;2023-04-29T08:41:43;20.52;;;16.02;;
21894;SDS011;11112;51.270;7.224;2023-04-29T08:44:15;19.45;;;15.77;;
21894;SDS011;11112;51.270;7.224;2023-04-29T08:46:42;19.23;;;15.30;;
21894;SDS011;11112;51.270;7.224;2023-04-29T08:49:17;20.05;;;15.05;;
21894;SDS011;11112;51.270;7.224;2023-04-29T08:51:46;20.13;;;15.82;;
21894;SDS011;11112;51.270;7.224;2023-04-29T08:54:15;18.88;;;15.13;;
21894;SDS011;11112;51.270;7.224;2023-04-29T08:56:44;20.42;;;16.05;;
21894;SDS011;11112;51.270;7.224;2023-04-29T08:59:12;23.48;;;17.33;;
21894;SDS011;11112;51.270;7.224;2023-04-29T09:01:41;24.98;;;18.25;;
21894;SDS011;11112;51.270;7.224;2023-04-29T09:04:14;24.25;;;18.10;;
21894;SDS011;11112;51.270;7.224;2023-04-29T09:06:55;25.00;;;18.88;;
21894;SDS011;11112;51.270;7.224;2023-04-29T09:09:25;25.13;;;19.05;;
21894;SDS011;11112;51.270;7.224;2023-04-29T09:11:52;28.70;;;20.08;;
21894;SDS011;11112;51.270;7.224;2023-04-29T09:14:20;29.55;;;21.40;;
21894;SDS011;11112;51.270;7.224;2023-04-29T09:16:49;33.03;;;23.35;;
21894;SDS011;11112;51.270;7.224;2023-04-29T09:19:31;38.53;;;27.65;;
21894;SDS011;11112;51.270;7.224;2023-04-29T09:21:59;40.35;;;28.50;;
21894;SDS011;11112;51.270;7.224;2023-04-29T09:24:29;39.58;;;29.23;;
21894;SDS011;11112;51.270;7.224;2023-04-29T09:26:57;41.28;;;29.92;;
21894;SDS011;11112;51.270;7.224;2023-04-29T09:29:25;44.30;;;30.40;;
21894;SDS011;11112;51.270;7.224;2023-04-29T09:31:53;45.17;;;30.83;;
21894;SDS011;11112;51.270;7.224;2023-04-29T09:34:31;46.85;;;31.25;;
21894;SDS011;11112;51.270;7.224;2023-04-29T09:37:02;47.00;;;31.17;;
21894;SDS011;11112;51.270;7.224;2023-04-29T09:39:36;44.65;;;29.90;;
21894;SDS011;11112;51.270;7.224;2023-04-29T09:42:04;45.92;;;31.92;;
21894;SDS011;11112;51.270;7.224;2023-04-29T09:44:34;44.20;;;29.27;;
21894;SDS011;11112;51.270;7.224;2023-04-29T09:47:02;43.15;;;28.45;;
21894;SDS011;11112;51.270;7.224;2023-04-29T09:49:33;41.88;;;28.95;;
21894;SDS011;11112;51.270;7.224;2023-04-29T09:52:03;41.63;;;27.27;;
21894;SDS011;11112;51.270;7.224;2023-04-29T09:54:33;40.85;;;27.45;;
21894;SDS011;11112;51.270;7.224;2023-04-29T09:57:02;41.20;;;25.98;;
21894;SDS011;11112;51.270;7.224;2023-04-29T09:59:31;40.65;;;25.75;;
21894;SDS011;11112;51.270;7.224;2023-04-29T10:02:00;35.10;;;25.10;;
21894;SDS011;11112;51.270;7.224;2023-04-29T10:04:36;37.45;;;24.70;;
21894;SDS011;11112;51.270;7.224;2023-04-29T10:07:07;39.42;;;24.27;;
21894;SDS011;11112;51.270;7.224;2023-04-29T10:09:37;40.33;;;27.50;;
21894;SDS011;11112;51.270;7.224;2023-04-29T10:12:06;47.83;;;27.88;;
21894;SDS011;11112;51.270;7.224;2023-04-29T10:14:36;45.05;;;28.95;;
21894;SDS011;11112;51.270;7.224;2023-04-29T10:17:10;49.70;;;29.48;;
21894;SDS011;11112;51.270;7.224;2023-04-29T10:19:51;46.13;;;30.40;;
21894;SDS011;11112;51.270;7.224;2023-04-29T10:22:25;47.80;;;29.08;;
21894;SDS011;11112;51.270;7.224;2023-04-29T10:25:01;45.92;;;29.10;;
21894;SDS011;11112;51.270;7.224;2023-04-29T10:27:32;49.45;;;31.70;;
21894;SDS011;11112;51.270;7.224;2023-04-29T10:30:02;46.20;;;29.77;;
21894;SDS011;11112;51.270;7.224;2023-04-29T10:32:33;50.55;;;30.58;;
21894;SDS011;11112;51.270;7.224;2023-04-29T10:35:04;55.15;;;32.20;;
21894;SDS011;11112;51.270;7.224;2023-04-29T10:37:35;53.42;;;32.28;;
21894;SDS011;11112;51.270;7.224;2023-04-29T10:40:06;51.80;;;32.30;;
21894;SDS011;11112;51.270;7.224;2023-04-29T10:42:42;53.55;;;30.90;;
21894;SDS011;11112;51.270;7.224;2023-04-29T10:45:18;54.80;;;33.17;;
21894;SDS011;11112;51.270;7.224;2023-04-29T10:53:35;55.35;;;33.33;;
21894;SDS011;11112;51.270;7.224;2023-04-29T10:56:36;50.15;;;31.65;;
21894;SDS011;11112;51.270;7.224;2023-04-29T10:59:08;55.50;;;32.67;;
21894;SDS011;11112;51.270;7.224;2023-04-29T11:01:41;50.33;;;32.40;;
21894;SDS011;11112;51.270;7.224;2023-04-29T11:04:19;55.78;;;33.13;;
21894;SDS011;11112;51.270;7.224;2023-04-29T11:06:50;53.83;;;33.30;;
21894;SDS011;11112;51.270;7.224;2023-04-29T11:09:20;51.75;;;31.92;;
21894;SDS011;11112;51.270;7.224;2023-04-29T11:11:58;51.65;;;32.15;;
21894;SDS011;11112;51.270;7.224;2023-04-29T11:14:28;49.83;;;31.48;;
21894;SDS011;11112;51.270;7.224;2023-04-29T11:17:09;52.65;;;31.60;;
21894;SDS011;11112;51.270;7.224;2023-04-29T11:19:41;52.03;;;32.10;;
21894;SDS011;11112;51.270;7.224;2023-04-29T11:22:23;48.60;;;30.75;;
21894;SDS011;11112;51.270;7.224;2023-04-29T11:24:53;54.70;;;33.97;;
21894;SDS011;11112;51.270;7.224;2023-04-29T11:27:25;52.80;;;32.60;;
21894;SDS011;11112;51.270;7.224;2023-04-29T11:29:55;47.03;;;31.90;;
21894;SDS011;11112;51.270;7.224;2023-04-29T11:32:24;51.38;;;31.92;;
21894;SDS011;11112;51.270;7.224;2023-04-29T11:34:52;49.83;;;32.53;;
21894;SDS011;11112;51.270;7.224;2023-04-29T11:37:24;53.53;;;31.63;;
21894;SDS011;11112;51.270;7.224;2023-04-29T11:39:57;47.05;;;29.67;;
21894;SDS011;11112;51.270;7.224;2023-04-29T11:44:53;43.88;;;27.80;;
21894;SDS011;11112;51.270;7.224;2023-04-29T11:47:27;42.20;;;28.50;;
21894;SDS011;11112;51.270;7.224;2023-04-29T11:50:02;38.80;;;25.77;;
21894;SDS011;11112;51.270;7.224;2023-04-29T11:52:33;36.83;;;24.85;;
21894;SDS011;11112;51.270;7.224;2023-04-29T11:55:04;39.88;;;26.60;;
21894;SDS011;11112;51.270;7.224;2023-04-29T11:57:34;40.35;;;25.55;;
21894;SDS011;11112;51.270;7.224;2023-04-29T12:00:02;35.17;;;23.90;;
21894;SDS011;11112;51.270;7.224;2023-04-29T12:02:30;39.47;;;25.40;;
21894;SDS011;11112;51.270;7.224;2023-04-29T12:04:58;42.17;;;26.92;;
21894;SDS011;11112;51.270;7.224;2023-04-29T12:07:29;37.17;;;26.02;;
21894;SDS011;11112;51.270;7.224;2023-04-29T12:09:59;36.72;;;24.50;;
21894;SDS011;11112;51.270;7.224;2023-04-29T12:12:26;35.97;;;24.45;;
21894;SDS011;11112;51.270;7.224;2023-04-29T12:14:55;37.03;;;24.38;;
21894;SDS011;11112;51.270;7.224;2023-04-29T12:17:23;35.20;;;23.30;;
21894;SDS011;11112;51.270;7.224;2023-04-29T12:19:54;36.88;;;23.48;;
21894;SDS011;11112;51.270;7.224;2023-04-29T12:22:22;37.05;;;23.60;;
21894;SDS011;11112;51.270;7.224;2023-04-29T12:24:59;30.33;;;20.70;;
21894;SDS011;11112;51.270;7.224;2023-04-29T12:27:29;27.50;;;19.92;;
21894;SDS011;11112;51.270;7.224;2023-04-29T12:29:57;32.00;;;20.48;;
21894;SDS011;11112;51.270;7.224;2023-04-29T12:32:24;33.20;;;20.73;;
21894;SDS011;11112;51.270;7.224;2023-04-29T12:34:51;28.48;;;19.35;;
21894;SDS011;11112;51.270;7.224;2023-04-29T12:37:20;31.73;;;20.80;;
21894;SDS011;11112;51.270;7.224;2023-04-29T12:39:48;36.55;;;20.92;;
21894;SDS011;11112;51.270;7.224;2023-04-29T12:42:18;30.50;;;21.73;;
21894;SDS011;11112;51.270;7.224;2023-04-29T12:44:45;37.22;;;22.63;;
21894;SDS011;11112;51.270;7.224;2023-04-29T12:47:14;30.83;;;22.20;;
21894;SDS011;11112;51.270;7.224;2023-04-29T12:49:46;33.13;;;22.67;;
21894;SDS011;11112;51.270;7.224;2023-04-29T12:52:14;32.35;;;23.08;;
21894;SDS011;11112;51.270;7.224;2023-04-29T12:54:42;30.20;;;22.95;;
21894;SDS011;11112;51.270;7.224;2023-04-29T12:57:12;29.58;;;22.98;;
21894;SDS011;11112;51.270;7.224;2023-04-29T12:59:42;31.05;;;22.08;;
21894;SDS011;11112;51.270;7.224;2023-04-29T13:02:09;30.38;;;22.67;;
21894;SDS011;11112;51.270;7.224;2023-04-29T13:04:37;30.80;;;21.60;;
21894;SDS011;11112;51.270;7.224;2023-04-29T13:07:04;32.88;;;23.23;;
21894;SDS011;11112;51.270;7.224;2023-04-29T13:09:32;30.92;;;22.00;;
21894;SDS011;11112;51.270;7.224;2023-04-29T13:12:03;32.50;;;22.90;;
21894;SDS011;11112;51.270;7.224;2023-04-29T13:14:32;30.95;;;22.05;;
21894;SDS011;11112;51.270;7.224;2023-04-29T13:17:04;31.88;;;22.08;;
21894;SDS011;11112;51.270;7.224;2023-04-29T13:19:35;32.92;;;23.75;;
21894;SDS011;11112;51.270;7.224;2023-04-29T13:22:02;34.95;;;23.55;;
21894;SDS011;11112;51.270;7.224;2023-04-29T13:24:29;33.47;;;23.42;;
21894;SDS011;11112;51.270;7.224;2023-04-29T13:26:59;30.63;;;21.95;;
21894;SDS011;11112;51.270;7.224;2023-04-29T13:29:28;27.77;;;20.95;;
21894;SDS011;11112;51.270;7.224;2023-04-29T13:31:55;29.70;;;21.63;;
21894;SDS011;11112;51.270;7.224;2023-04-29T13:34:25;30.00;;;21.77;;
21894;SDS011;11112;51.270;7.224;2023-04-29T13:36:52;28.33;;;21.27;;
21894;SDS011;11112;51.270;7.224;2023-04-29T13:39:20;28.23;;;20.70;;
21894;SDS011;11112;51.270;7.224;2023-04-29T13:41:47;27.88;;;21.67;;
21894;SDS011;11112;51.270;7.224;2023-04-29T13:44:16;28.38;;;21.75;;
21894;SDS011;11112;51.270;7.224;2023-04-29T13:46:45;29.75;;;21.52;;
21894;SDS011;11112;51.270;7.224;2023-04-29T13:49:13;27.42;;;20.55;;
21894;SDS011;11112;51.270;7.224;2023-04-29T13:51:41;25.02;;;20.17;;
21894;SDS011;11112;51.270;7.224;2023-04-29T13:54:08;23.15;;;18.98;;
21894;SDS011;11112;51.270;7.224;2023-04-29T13:56:36;29.98;;;20.23;;
21894;SDS011;11112;51.270;7.224;2023-04-29T13:59:03;23.77;;;19.42;;
21894;SDS011;11112;51.270;7.224;2023-04-29T14:01:31;23.10;;;18.17;;
21894;SDS011;11112;51.270;7.224;2023-04-29T14:03:59;23.67;;;18.30;;
21894;SDS011;11112;51.270;7.224;2023-04-29T14:06:26;22.85;;;18.38;;
21894;SDS011;11112;51.270;7.224;2023-04-29T14:08:55;24.88;;;18.60;;
21894;SDS011;11112;51.270;7.224;2023-04-29T14:11:23;21.20;;;16.90;;
21894;SDS011;11112;51.270;7.224;2023-04-29T14:13:51;21.10;;;17.50;;
21894;SDS011;11112;51.270;7.224;2023-04-29T14:16:20;24.40;;;16.88;;
21894;SDS011;11112;51.270;7.224;2023-04-29T14:18:47;21.23;;;16.65;;
21894;SDS011;11112;51.270;7.224;2023-04-29T14:21:14;22.70;;;16.85;;
21894;SDS011;11112;51.270;7.224;2023-04-29T14:23:42;20.95;;;16.60;;
21894;SDS011;11112;51.270;7.224;2023-04-29T14:26:10;24.67;;;17.75;;
21894;SDS011;11112;51.270;7.224;2023-04-29T14:28:38;23.88;;;16.42;;
21894;SDS011;11112;51.270;7.224;2023-04-29T14:31:06;23.52;;;17.33;;
21894;SDS011;11112;51.270;7.224;2023-04-29T14:33:33;24.63;;;19.08;;
21894;SDS011;11112;51.270;7.224;2023-04-29T14:36:00;22.05;;;17.35;;
21894;SDS011;11112;51.270;7.224;2023-04-29T14:38:28;24.95;;;17.27;;
21894;SDS011;11112;51.270;7.224;2023-04-29T14:40:55;25.25;;;18.42;;